createdAt,value
2023-05-12T00:01:07.679Z,12.21
2023-05-12T00:03:34.420Z,12.26
2023-05-12T00:06:01.528Z,12.09
2023-05-12T00:08:28.121Z,12.25
2023-05-12T00:10:54.835Z,12.33
2023-05-12T00:13:21.490Z,12.33
2023-05-12T00:15:48.284Z,12.23
2023-05-12T00:18:14.981Z,12.19
2023-05-12T00:20:41.636Z,12.39
2023-05-12T00:23:08.254Z,12.48
2023-05-12T00:25:35.137Z,12.31
2023-05-12T00:28:01.792Z,12.25
2023-05-12T00:30:28.542Z,12.24
2023-05-12T00:32:55.184Z,12.01
2023-05-12T00:35:22.083Z,12.25
2023-05-12T00:37:48.733Z,12.27
2023-05-12T00:40:15.328Z,11.88
2023-05-12T00:42:41.955Z,12.21
2023-05-12T00:45:09.081Z,12.40
2023-05-12T00:47:35.880Z,12.22
2023-05-12T00:50:04.313Z,12.54
2023-05-12T00:52:30.997Z,12.41
2023-05-12T00:54:58.348Z,12.19
2023-05-12T00:57:26.231Z,11.94
2023-05-12T00:59:52.841Z,12.01
2023-05-12T01:02:19.806Z,11.88
2023-05-12T01:04:47.189Z,11.94
2023-05-12T01:07:19.056Z,11.72
2023-05-12T01:09:45.755Z,11.77
2023-05-12T01:12:12.418Z,11.94
2023-05-12T01:14:39.606Z,11.79
2023-05-12T01:17:12.314Z,12.11
2023-05-12T01:19:48.737Z,11.75
2023-05-12T01:22:17.231Z,11.77
2023-05-12T01:24:52.714Z,11.97
2023-05-12T01:27:21.424Z,11.78
2023-05-12T01:29:48.380Z,11.73
2023-05-12T01:32:15.543Z,11.93
2023-05-12T01:34:43.174Z,12.04
2023-05-12T01:37:10.439Z,12.07
2023-05-12T01:39:37.674Z,11.77
2023-05-12T01:42:05.297Z,11.83
2023-05-12T01:44:31.979Z,11.73
2023-05-12T01:46:58.603Z,11.86
2023-05-12T01:49:25.207Z,12.15
2023-05-12T01:51:51.894Z,12.09
2023-05-12T01:54:18.735Z,12.01
2023-05-12T01:56:45.395Z,11.94
2023-05-12T01:59:12.059Z,11.85
2023-05-12T02:01:38.842Z,11.95
2023-05-12T02:04:05.604Z,11.53
2023-05-12T02:06:32.276Z,11.61
2023-05-12T02:08:58.888Z,11.52
2023-05-12T02:11:25.592Z,11.93
2023-05-12T02:13:52.260Z,12.01
2023-05-12T02:16:18.920Z,12.10
2023-05-12T02:18:45.674Z,12.03
2023-05-12T02:21:12.374Z,11.95
2023-05-12T02:23:39.051Z,11.65
2023-05-12T02:26:05.660Z,11.46
2023-05-12T02:28:32.468Z,11.73
2023-05-12T02:30:59.390Z,11.57
2023-05-12T02:33:26.018Z,11.44
2023-05-12T02:35:52.676Z,11.48
2023-05-12T02:38:19.316Z,11.47
2023-05-12T02:40:46.994Z,11.64
2023-05-12T02:43:13.684Z,11.70
2023-05-12T02:45:40.409Z,11.56
2023-05-12T02:48:07.065Z,11.66
2023-05-12T02:50:33.870Z,11.68
2023-05-12T02:53:02.910Z,11.56
2023-05-12T02:55:29.783Z,11.31
2023-05-12T02:57:57.110Z,11.34
2023-05-12T03:00:23.833Z,11.30
2023-05-12T03:02:50.550Z,11.42
2023-05-12T03:05:17.492Z,11.51
2023-05-12T03:07:44.129Z,11.39
2023-05-12T03:10:10.909Z,11.18
2023-05-12T03:12:37.694Z,11.53
2023-05-12T03:15:04.763Z,11.54
2023-05-12T03:17:31.405Z,11.25
2023-05-12T03:19:58.012Z,11.27
2023-05-12T03:22:24.704Z,11.26
2023-05-12T03:24:51.311Z,11.55
2023-05-12T03:27:19.022Z,11.46
2023-05-12T03:29:45.876Z,11.70
2023-05-12T03:32:13.178Z,11.32
2023-05-12T03:34:39.873Z,11.35
2023-05-12T03:37:06.577Z,11.39
2023-05-12T03:39:33.477Z,11.34
2023-05-12T03:42:00.183Z,10.87
2023-05-12T03:44:26.797Z,11.26
2023-05-12T03:46:53.604Z,11.03
2023-05-12T03:49:20.291Z,11.11
2023-05-12T03:51:46.930Z,11.17
2023-05-12T03:54:13.568Z,11.02
2023-05-12T03:56:40.181Z,11.05
2023-05-12T03:59:06.927Z,11.19
2023-05-12T04:01:33.750Z,11.43
2023-05-12T04:04:00.370Z,11.21
2023-05-12T04:06:26.997Z,11.09
2023-05-12T04:08:53.701Z,11.10
2023-05-12T04:11:20.307Z,11.25
2023-05-12T04:13:46.931Z,11.17
2023-05-12T04:16:13.636Z,11.34
2023-05-12T04:18:40.268Z,11.05
2023-05-12T04:21:06.972Z,11.27
2023-05-12T04:23:33.640Z,11.44
2023-05-12T04:26:03.735Z,11.12
2023-05-12T04:28:30.373Z,11.14
2023-05-12T04:30:56.997Z,11.08
2023-05-12T04:33:26.196Z,11.16
2023-05-12T04:35:56.356Z,11.12
2023-05-12T04:38:22.985Z,10.96
2023-05-12T04:40:49.595Z,11.07
2023-05-12T04:45:45.716Z,11.04
2023-05-12T04:48:12.337Z,11.09
2023-05-12T04:50:39.000Z,11.08
2023-05-12T04:53:05.603Z,11.35
2023-05-12T04:55:32.207Z,11.13
2023-05-12T04:57:58.992Z,10.93
2023-05-12T05:00:25.770Z,11.06
2023-05-12T05:02:52.700Z,11.22
2023-05-12T05:05:19.958Z,11.07
2023-05-12T05:07:46.790Z,11.33
2023-05-12T05:10:13.465Z,11.58
2023-05-12T05:12:40.092Z,11.28
2023-05-12T05:15:07.274Z,11.08
2023-05-12T05:17:33.934Z,10.89
2023-05-12T05:20:00.641Z,11.09
2023-05-12T05:22:27.462Z,10.95
2023-05-12T05:24:54.159Z,10.82
2023-05-12T05:27:20.765Z,10.97
2023-05-12T05:29:47.547Z,10.74
2023-05-12T05:32:14.182Z,10.57
2023-05-12T05:34:40.902Z,10.79
2023-05-12T05:37:07.596Z,10.71
2023-05-12T05:39:34.173Z,10.93
2023-05-12T05:42:00.765Z,11.10
2023-05-12T05:44:27.383Z,11.28
2023-05-12T05:46:54.027Z,11.45
2023-05-12T05:49:20.678Z,11.44
2023-05-12T05:51:47.305Z,11.34
2023-05-12T05:54:13.998Z,11.63
2023-05-12T05:56:40.703Z,11.50
2023-05-12T05:59:07.276Z,11.35
2023-05-12T06:01:34.070Z,11.20
2023-05-12T06:04:00.961Z,11.12
2023-05-12T06:06:29.034Z,11.57
2023-05-12T06:08:55.660Z,11.49
2023-05-12T06:11:22.336Z,11.47
2023-05-12T06:13:49.157Z,11.37
2023-05-12T06:16:15.940Z,11.55
2023-05-12T06:18:42.602Z,11.51
2023-05-12T06:21:09.305Z,11.47
2023-05-12T06:23:35.931Z,11.42
2023-05-12T06:26:02.588Z,11.64
2023-05-12T06:28:29.211Z,11.67
2023-05-12T06:30:55.911Z,11.56
2023-05-12T06:33:22.576Z,11.71
2023-05-12T06:35:49.288Z,11.62
2023-05-12T06:38:16.016Z,11.75
2023-05-12T06:40:42.679Z,11.54
2023-05-12T06:43:09.313Z,11.89
2023-05-12T06:45:36.499Z,12.12
2023-05-12T06:48:03.366Z,11.98
2023-05-12T06:50:30.044Z,11.87
2023-05-12T06:52:56.731Z,11.99
2023-05-12T06:55:23.632Z,11.96
2023-05-12T06:57:50.430Z,11.43
2023-05-12T07:00:17.327Z,11.69
2023-05-12T07:02:43.935Z,11.94
2023-05-12T07:05:10.733Z,12.01
2023-05-12T07:07:37.362Z,12.24
2023-05-12T07:10:04.392Z,12.33
2023-05-12T07:12:30.995Z,12.36
2023-05-12T07:14:57.593Z,11.95
2023-05-12T07:17:24.314Z,11.78
2023-05-12T07:19:51.029Z,11.81
2023-05-12T07:22:17.642Z,11.64
2023-05-12T07:24:44.689Z,12.11
2023-05-12T07:27:11.369Z,12.41
2023-05-12T07:29:37.982Z,12.21
2023-05-12T07:32:05.020Z,12.08
2023-05-12T07:34:34.300Z,12.09
2023-05-12T07:37:00.977Z,12.04
2023-05-12T07:39:27.973Z,12.18
2023-05-12T07:41:54.549Z,12.04
2023-05-12T07:44:21.340Z,12.23
2023-05-12T07:46:47.939Z,12.27
2023-05-12T07:49:14.628Z,12.26
2023-05-12T07:51:41.275Z,12.41
2023-05-12T07:54:07.940Z,12.02
2023-05-12T07:56:34.649Z,12.14
2023-05-12T07:59:01.330Z,12.44
2023-05-12T08:01:27.953Z,12.35
2023-05-12T08:03:54.690Z,12.59
2023-05-12T08:06:21.438Z,12.12
2023-05-12T08:08:48.079Z,12.09
2023-05-12T08:11:14.757Z,12.14
2023-05-12T08:13:41.370Z,12.20
2023-05-12T08:16:08.257Z,12.24
2023-05-12T08:18:35.301Z,12.26
2023-05-12T08:21:01.942Z,12.22
2023-05-12T08:23:28.664Z,12.12
2023-05-12T08:25:55.306Z,12.02
2023-05-12T08:28:21.949Z,12.25
2023-05-12T08:30:48.759Z,12.26
2023-05-12T08:33:15.570Z,12.27
2023-05-12T08:35:42.515Z,12.31
2023-05-12T08:38:09.143Z,12.39
2023-05-12T08:40:44.420Z,12.18
2023-05-12T08:43:18.650Z,12.28
2023-05-12T08:45:45.890Z,12.42
2023-05-12T08:48:13.350Z,12.54
2023-05-12T08:50:41.290Z,12.37
2023-05-12T08:53:11.211Z,12.27
2023-05-12T08:55:39.678Z,12.37
2023-05-12T08:58:09.555Z,12.22
2023-05-12T09:00:38.979Z,12.21
2023-05-12T09:03:06.575Z,12.17
2023-05-12T09:05:33.964Z,12.32
2023-05-12T09:08:01.545Z,12.02
2023-05-12T09:13:08.958Z,11.60
2023-05-12T09:15:39.860Z,11.71
2023-05-12T09:18:06.636Z,11.53
2023-05-12T09:20:33.922Z,11.68
2023-05-12T09:23:13.125Z,11.59
2023-05-12T09:25:40.030Z,11.44
2023-05-12T09:28:06.709Z,11.39
2023-05-12T09:30:33.342Z,11.31
2023-05-12T09:33:10.122Z,11.05
2023-05-12T09:35:45.287Z,11.48
2023-05-12T09:38:13.985Z,11.37
2023-05-12T09:40:40.777Z,11.42
2023-05-12T09:43:08.337Z,11.51
2023-05-12T09:45:38.158Z,11.65
2023-05-12T09:48:12.388Z,11.46
2023-05-12T09:50:52.333Z,11.61
2023-05-12T09:53:19.776Z,11.31
2023-05-12T09:55:47.858Z,10.99
2023-05-12T09:58:16.998Z,11.02
2023-05-12T10:01:09.170Z,10.98
2023-05-12T10:03:34.826Z,11.02
2023-05-12T10:06:05.598Z,11.08
2023-05-12T10:08:49.209Z,11.25
2023-05-12T10:11:16.620Z,11.40
2023-05-12T10:13:43.691Z,11.67
2023-05-12T10:16:10.436Z,11.52
2023-05-12T10:18:37.536Z,11.38
2023-05-12T10:21:05.440Z,11.45
2023-05-12T10:23:32.305Z,11.30
2023-05-12T10:25:59.108Z,11.27
2023-05-12T10:28:25.752Z,10.83
2023-05-12T10:30:53.523Z,11.08
2023-05-12T10:33:20.424Z,11.25
2023-05-12T10:35:49.326Z,11.30
2023-05-12T10:38:16.398Z,11.09
2023-05-12T10:40:51.842Z,11.25
2023-05-12T10:43:23.006Z,11.14
2023-05-12T10:46:12.187Z,11.29
2023-05-12T10:49:08.679Z,11.31
2023-05-12T10:51:59.139Z,11.30
2023-05-12T10:54:26.040Z,11.33
2023-05-12T10:56:58.524Z,11.54
2023-05-12T10:59:26.618Z,11.12
2023-05-12T11:02:03.961Z,11.10
2023-05-12T11:04:51.284Z,11.14
2023-05-12T11:07:30.618Z,11.45
2023-05-12T11:10:02.444Z,11.09
2023-05-12T11:12:31.269Z,11.42
2023-05-12T11:15:03.747Z,11.42
2023-05-12T11:17:31.128Z,11.54
2023-05-12T11:19:57.841Z,11.27
2023-05-12T11:22:24.839Z,11.12
2023-05-12T11:24:53.287Z,11.26
2023-05-12T11:27:22.242Z,11.29
2023-05-12T11:30:00.446Z,11.31
2023-05-12T11:32:27.586Z,11.35
2023-05-12T11:34:54.266Z,11.52
2023-05-12T11:37:21.525Z,11.29
2023-05-12T11:39:48.656Z,11.13
2023-05-12T11:42:17.767Z,11.31
2023-05-12T11:44:50.024Z,11.17
2023-05-12T11:47:20.299Z,11.17
2023-05-12T11:49:46.891Z,11.29
2023-05-12T11:52:14.134Z,11.20
2023-05-12T11:54:51.122Z,11.27
2023-05-12T11:57:32.873Z,10.94
2023-05-12T12:00:02.040Z,11.30
2023-05-12T12:02:29.633Z,11.38
2023-05-12T12:04:57.216Z,11.23
2023-05-12T12:07:37.709Z,11.51
2023-05-12T12:10:16.898Z,11.43
2023-05-12T12:12:44.456Z,11.49
2023-05-12T12:15:11.758Z,11.62
2023-05-12T12:17:39.716Z,11.50
2023-05-12T12:20:07.888Z,11.37
2023-05-12T12:22:34.898Z,11.38
2023-05-12T12:25:02.732Z,10.99
2023-05-12T12:27:29.613Z,10.99
2023-05-12T12:29:56.339Z,11.03
2023-05-12T12:32:23.149Z,11.05
2023-05-12T12:34:50.087Z,10.98
2023-05-12T12:37:16.721Z,10.91
2023-05-12T12:39:43.362Z,10.86
2023-05-12T12:42:10.112Z,10.67
2023-05-12T12:44:36.731Z,10.85
2023-05-12T12:47:03.420Z,10.97
2023-05-12T12:49:30.167Z,11.00
2023-05-12T12:51:56.808Z,10.74
2023-05-12T12:54:23.532Z,10.89
2023-05-12T12:56:50.244Z,10.92
2023-05-12T12:59:16.857Z,11.12
2023-05-12T13:01:43.761Z,11.31
2023-05-12T13:04:10.521Z,11.25
2023-05-12T13:06:37.168Z,11.05
2023-05-12T13:09:03.859Z,11.30
2023-05-12T13:11:30.642Z,11.18
2023-05-12T13:13:57.250Z,11.29
2023-05-12T13:16:23.854Z,11.42
2023-05-12T13:18:50.524Z,11.35
2023-05-12T13:21:17.288Z,11.20
2023-05-12T13:23:43.951Z,11.17
2023-05-12T13:26:10.657Z,11.26
2023-05-12T13:28:37.397Z,10.88
2023-05-12T13:31:04.313Z,10.91
2023-05-12T13:33:31.020Z,10.96
2023-05-12T13:35:57.628Z,11.04
2023-05-12T13:38:24.250Z,11.08
2023-05-12T13:40:51.025Z,11.02
2023-05-12T13:43:19.123Z,11.17
2023-05-12T13:45:47.917Z,11.01
2023-05-12T13:48:14.604Z,10.97
2023-05-12T13:50:41.617Z,10.67
2023-05-12T13:53:08.255Z,10.66
2023-05-12T13:55:35.165Z,10.85
2023-05-12T13:58:01.843Z,10.90
2023-05-12T14:00:28.507Z,10.49
2023-05-12T14:02:55.375Z,10.67
2023-05-12T14:05:22.671Z,10.75
2023-05-12T14:07:49.793Z,10.86
2023-05-12T14:10:16.579Z,10.90
2023-05-12T14:12:43.398Z,10.72
2023-05-12T14:15:26.069Z,10.82
2023-05-12T14:17:56.048Z,10.83
2023-05-12T14:20:22.999Z,11.01
2023-05-12T14:22:49.615Z,10.88
2023-05-12T14:25:16.377Z,10.87
2023-05-12T14:27:43.019Z,11.01
2023-05-12T14:30:10.212Z,11.15
2023-05-12T14:32:37.067Z,10.96
2023-05-12T14:35:04.838Z,10.84
2023-05-12T14:37:32.377Z,10.98
2023-05-12T14:39:59.047Z,10.56
2023-05-12T14:42:25.766Z,10.91
2023-05-12T14:44:53.525Z,10.91
2023-05-12T14:47:20.230Z,11.07
2023-05-12T14:49:46.886Z,11.16
2023-05-12T14:52:13.516Z,11.02
2023-05-12T14:54:40.421Z,11.22
2023-05-12T14:57:09.853Z,11.40
2023-05-12T14:59:36.490Z,11.18
2023-05-12T15:02:03.257Z,11.25
2023-05-12T15:04:29.967Z,10.78
2023-05-12T15:06:56.635Z,10.89
2023-05-12T15:09:24.673Z,10.95
2023-05-12T15:11:51.340Z,11.19
2023-05-12T15:14:18.013Z,11.47
2023-05-12T15:16:44.707Z,11.19
2023-05-12T15:19:11.482Z,11.31
2023-05-12T15:21:38.170Z,11.27
2023-05-12T15:24:04.936Z,11.19
2023-05-12T15:26:34.205Z,11.36
2023-05-12T15:29:01.210Z,11.48
2023-05-12T15:31:31.173Z,11.30
2023-05-12T15:33:57.926Z,11.48
2023-05-12T15:36:24.647Z,11.41
2023-05-12T15:38:51.478Z,11.68
2023-05-12T15:41:18.160Z,11.72
2023-05-12T15:43:44.837Z,11.24
2023-05-12T15:46:11.782Z,11.35
2023-05-12T15:48:39.383Z,11.21
2023-05-12T15:51:09.574Z,11.37
2023-05-12T15:53:36.275Z,11.36
2023-05-12T15:56:04.657Z,11.48
2023-05-12T15:58:31.649Z,11.46
2023-05-12T16:00:59.190Z,11.66
2023-05-12T16:03:26.030Z,11.52
2023-05-12T16:05:53.088Z,11.49
2023-05-12T16:08:19.748Z,11.23
2023-05-12T16:10:48.636Z,11.27
2023-05-12T16:13:15.264Z,11.22
2023-05-12T16:15:42.018Z,11.36
2023-05-12T16:18:11.151Z,11.12
2023-05-12T16:20:38.216Z,11.22
2023-05-12T16:23:04.838Z,11.03
2023-05-12T16:25:31.540Z,11.11
2023-05-12T16:27:58.151Z,11.44
2023-05-12T16:30:24.961Z,11.47
2023-05-12T16:32:51.617Z,11.18
2023-05-12T16:35:18.466Z,11.20
2023-05-12T16:37:45.391Z,11.33
2023-05-12T16:40:12.218Z,11.43
2023-05-12T16:42:38.866Z,11.20
2023-05-12T16:45:06.037Z,11.34
2023-05-12T16:47:32.995Z,11.19
2023-05-12T16:49:59.888Z,11.03
2023-05-12T16:52:27.015Z,11.26
2023-05-12T16:54:55.959Z,11.25
2023-05-12T16:57:23.224Z,10.95
2023-05-12T16:59:50.049Z,10.98
2023-05-12T17:02:16.842Z,10.97
2023-05-12T17:04:44.077Z,10.94
2023-05-12T17:07:10.828Z,10.97
2023-05-12T17:09:37.580Z,10.95
2023-05-12T17:12:04.677Z,10.85
2023-05-12T17:14:31.671Z,11.02
2023-05-12T17:16:58.424Z,11.10
2023-05-12T17:19:25.127Z,10.99
2023-05-12T17:21:51.746Z,11.09
2023-05-12T17:24:18.394Z,10.99
2023-05-12T17:26:45.003Z,10.93
2023-05-12T17:29:11.882Z,11.13
2023-05-12T17:31:38.729Z,10.89
2023-05-12T17:34:05.699Z,10.97
2023-05-12T17:36:32.502Z,10.93
2023-05-12T17:38:59.159Z,11.08
2023-05-12T17:41:27.013Z,11.00
2023-05-12T17:43:55.053Z,11.14
2023-05-12T17:46:21.699Z,11.06
2023-05-12T17:48:48.608Z,11.04
2023-05-12T17:51:15.366Z,10.84
2023-05-12T17:53:41.991Z,10.81
2023-05-12T17:56:08.644Z,10.93
2023-05-12T17:58:35.273Z,10.70
2023-05-12T18:01:02.053Z,10.58
2023-05-12T18:03:28.667Z,10.99
2023-05-12T18:05:55.329Z,10.87
2023-05-12T18:08:24.873Z,10.80
2023-05-12T18:10:51.467Z,10.75
2023-05-12T18:13:20.453Z,10.88
2023-05-12T18:15:49.108Z,10.85
2023-05-12T18:18:15.715Z,10.68
2023-05-12T18:20:42.450Z,10.61
2023-05-12T18:23:09.070Z,10.64
2023-05-12T18:25:35.823Z,10.68
2023-05-12T18:28:05.224Z,10.53
2023-05-12T18:30:31.901Z,10.34
2023-05-12T18:32:58.574Z,10.37
2023-05-12T18:35:25.261Z,10.51
2023-05-12T18:37:51.924Z,10.64
2023-05-12T18:40:18.584Z,10.48
2023-05-12T18:42:45.186Z,10.71
2023-05-12T18:45:11.913Z,10.47
2023-05-12T18:47:38.581Z,10.28
2023-05-12T18:50:05.636Z,10.29
2023-05-12T18:52:32.296Z,10.33
2023-05-12T18:54:58.927Z,10.44
2023-05-12T18:57:26.894Z,10.65
2023-05-12T18:59:53.510Z,10.71
2023-05-12T19:02:20.090Z,10.47
2023-05-12T19:04:46.745Z,10.67
2023-05-12T19:07:13.331Z,10.78
2023-05-12T19:09:39.911Z,10.53
2023-05-12T19:12:09.927Z,10.44
2023-05-12T19:14:37.718Z,10.53
2023-05-12T19:17:04.739Z,10.58
2023-05-12T19:19:34.279Z,10.89
2023-05-12T19:22:00.908Z,10.63
2023-05-12T19:24:27.757Z,10.64
2023-05-12T19:26:54.418Z,10.54
2023-05-12T19:29:21.215Z,10.52
2023-05-12T19:31:48.087Z,10.85
2023-05-12T19:34:15.081Z,10.61
2023-05-12T19:36:41.878Z,10.28
2023-05-12T19:39:08.488Z,10.42
2023-05-12T19:41:35.284Z,10.50
2023-05-12T19:44:01.958Z,10.64
2023-05-12T19:46:29.495Z,10.63
2023-05-12T19:48:56.200Z,10.48
2023-05-12T19:51:22.894Z,10.78
2023-05-12T19:53:49.562Z,10.78
2023-05-12T19:56:16.308Z,10.70
2023-05-12T19:58:42.956Z,10.67
2023-05-12T20:01:11.034Z,10.74
2023-05-12T20:03:37.702Z,10.65
2023-05-12T20:06:06.222Z,10.83
2023-05-12T20:08:32.891Z,10.71
2023-05-12T20:11:02.587Z,10.65
2023-05-12T20:13:29.234Z,10.65
2023-05-12T20:15:55.859Z,10.59
2023-05-12T20:18:22.725Z,10.61
2023-05-12T20:20:49.610Z,10.84
2023-05-12T20:23:16.477Z,10.54
2023-05-12T20:25:43.103Z,10.82
2023-05-12T20:28:09.713Z,11.14
2023-05-12T20:30:37.482Z,11.17
2023-05-12T20:33:04.260Z,10.78
2023-05-12T20:35:30.944Z,10.66
2023-05-12T20:37:57.519Z,10.77
2023-05-12T20:40:24.222Z,10.74
2023-05-12T20:42:51.227Z,10.89
2023-05-12T20:45:18.160Z,11.00
2023-05-12T20:47:44.816Z,10.96
2023-05-12T20:50:11.565Z,10.83
2023-05-12T20:52:40.212Z,10.96
2023-05-12T20:55:07.796Z,10.95
2023-05-12T20:57:34.707Z,11.02
2023-05-12T21:00:01.720Z,11.05
2023-05-12T21:02:29.239Z,10.87
2023-05-12T21:04:56.325Z,11.04
2023-05-12T21:07:22.926Z,10.83
2023-05-12T21:09:49.666Z,10.59
2023-05-12T21:12:16.578Z,10.65
2023-05-12T21:14:44.453Z,10.82
2023-05-12T21:17:12.041Z,10.84
2023-05-12T21:19:40.002Z,10.89
2023-05-12T21:22:08.099Z,10.99
2023-05-12T21:24:35.012Z,10.82
2023-05-12T21:27:02.235Z,10.77
2023-05-12T21:29:29.060Z,10.43
2023-05-12T21:31:55.751Z,10.54
2023-05-12T21:34:22.410Z,10.61
2023-05-12T21:36:49.045Z,10.70
2023-05-12T21:39:15.806Z,10.62
2023-05-12T21:41:42.583Z,10.53
2023-05-12T21:44:11.059Z,10.66
2023-05-12T21:46:38.042Z,10.62
2023-05-12T21:49:04.854Z,10.58
2023-05-12T21:51:31.535Z,10.58
2023-05-12T21:53:58.196Z,10.56
2023-05-12T21:56:25.047Z,10.84
2023-05-12T21:58:51.666Z,10.94
2023-05-12T22:01:18.610Z,10.99
2023-05-12T22:03:47.943Z,11.01
2023-05-12T22:06:14.631Z,10.94
2023-05-12T22:08:41.595Z,10.66
2023-05-12T22:11:08.308Z,10.69
2023-05-12T22:13:35.024Z,10.90
2023-05-12T22:16:01.680Z,10.80
2023-05-12T22:18:28.366Z,10.87
2023-05-12T22:20:55.068Z,10.66
2023-05-12T22:23:21.750Z,10.89
2023-05-12T22:25:48.395Z,10.87
2023-05-12T22:28:15.102Z,10.67
2023-05-12T22:30:41.737Z,10.69
2023-05-12T22:33:08.622Z,10.72
2023-05-12T22:35:35.424Z,10.68
2023-05-12T22:38:02.246Z,10.75
2023-05-12T22:40:28.852Z,10.56
2023-05-12T22:42:55.459Z,10.50
2023-05-12T22:45:22.124Z,10.42
2023-05-12T22:47:48.966Z,10.51
2023-05-12T22:50:15.704Z,10.69
2023-05-12T22:52:42.696Z,10.77
2023-05-12T22:55:12.158Z,10.52
2023-05-12T22:57:38.759Z,10.48
2023-05-12T23:00:06.871Z,10.58
2023-05-12T23:02:33.599Z,10.79
2023-05-12T23:05:00.238Z,11.00
2023-05-12T23:07:26.987Z,10.56
2023-05-12T23:09:53.706Z,10.44
2023-05-12T23:12:20.320Z,10.69
2023-05-12T23:14:47.105Z,10.73
2023-05-12T23:17:13.709Z,10.70
2023-05-12T23:19:40.328Z,10.50
2023-05-12T23:22:06.910Z,10.62
2023-05-12T23:24:36.077Z,10.47
2023-05-12T23:27:02.897Z,10.39
2023-05-12T23:29:29.550Z,10.48
2023-05-12T23:31:56.288Z,10.53
2023-05-12T23:34:22.990Z,10.59
2023-05-12T23:36:49.696Z,10.61
2023-05-12T23:39:16.355Z,10.24
2023-05-12T23:41:43.018Z,10.33
2023-05-12T23:44:09.634Z,10.33
2023-05-12T23:46:36.301Z,10.57
2023-05-12T23:49:03.074Z,10.75
2023-05-12T23:51:29.787Z,10.87
2023-05-12T23:53:56.398Z,10.77
2023-05-12T23:56:23.199Z,10.55
2023-05-12T23:58:49.829Z,10.72
